createdAt,value
2017-11-17T00:02:14.037Z,45.70
2017-11-17T00:04:42.172Z,45.50
2017-11-17T00:07:10.236Z,44.60
2017-11-17T00:09:39.088Z,45.70
2017-11-17T00:12:07.160Z,45.70
2017-11-17T00:14:35.236Z,45.20
2017-11-17T00:17:03.317Z,45.70
2017-11-17T00:19:31.381Z,45.60
2017-11-17T00:21:59.445Z,46.50
2017-11-17T00:24:27.512Z,46.40
2017-11-17T00:26:55.578Z,47.00
2017-11-17T00:29:23.648Z,46.80
2017-11-17T00:31:51.736Z,47.10
2017-11-17T00:34:19.809Z,47.10
2017-11-17T00:36:47.894Z,47.00
2017-11-17T00:39:15.952Z,47.30
2017-11-17T00:41:44.023Z,47.00
2017-11-17T00:44:12.111Z,47.30
2017-11-17T00:46:40.172Z,46.60
2017-11-17T00:49:08.242Z,46.60
2017-11-17T00:51:36.313Z,46.20
2017-11-17T00:54:04.372Z,45.60
2017-11-17T00:56:32.449Z,46.30
2017-11-17T00:59:00.515Z,45.50
2017-11-17T01:01:28.590Z,46.00
2017-11-17T01:03:56.653Z,46.20
2017-11-17T01:06:24.729Z,46.50
2017-11-17T01:08:52.797Z,46.50
2017-11-17T01:11:20.880Z,45.60
2017-11-17T01:13:48.941Z,45.50
2017-11-17T01:16:17.021Z,46.40
2017-11-17T01:18:45.093Z,46.30
2017-11-17T01:21:13.195Z,47.10
2017-11-17T01:23:41.259Z,47.00
2017-11-17T01:26:09.332Z,46.30
2017-11-17T01:28:37.409Z,46.60
2017-11-17T01:31:06.269Z,45.90
2017-11-17T01:33:34.344Z,45.90
2017-11-17T01:36:02.416Z,45.50
2017-11-17T01:38:30.488Z,45.50
2017-11-17T01:40:58.572Z,45.50
2017-11-17T01:43:26.657Z,45.40
2017-11-17T01:45:54.723Z,46.00
2017-11-17T01:48:22.788Z,46.70
2017-11-17T01:50:50.859Z,46.80
2017-11-17T01:53:18.932Z,47.00
2017-11-17T01:55:46.994Z,46.60
2017-11-17T01:58:15.064Z,46.90
2017-11-17T02:00:43.133Z,46.80
2017-11-17T02:03:11.220Z,47.00
2017-11-17T02:05:39.280Z,47.60
2017-11-17T02:08:07.347Z,47.60
2017-11-17T02:10:35.469Z,47.70
2017-11-17T02:13:04.288Z,47.40
2017-11-17T02:15:32.361Z,47.50
2017-11-17T02:18:01.198Z,47.50
2017-11-17T02:20:29.277Z,47.40
2017-11-17T02:22:57.337Z,48.70
2017-11-17T02:25:26.239Z,48.60
2017-11-17T02:27:54.366Z,49.10
2017-11-17T02:30:22.438Z,49.40
2017-11-17T02:32:50.514Z,49.90
2017-11-17T02:35:19.364Z,49.10
2017-11-17T02:37:48.188Z,49.30
2017-11-17T02:40:16.256Z,49.20
2017-11-17T02:42:44.333Z,49.10
2017-11-17T02:45:12.434Z,48.70
2017-11-17T02:47:40.513Z,47.60
2017-11-17T02:50:08.584Z,47.80
2017-11-17T02:52:36.662Z,49.00
2017-11-17T02:55:04.740Z,49.00
2017-11-17T02:57:32.812Z,48.90
2017-11-17T03:00:00.880Z,48.50
2017-11-17T03:02:28.957Z,49.50
2017-11-17T03:04:57.015Z,49.80
2017-11-17T03:07:25.089Z,51.00
2017-11-17T03:09:53.161Z,51.30
2017-11-17T03:12:21.241Z,51.40
2017-11-17T03:14:49.303Z,51.00
2017-11-17T03:17:17.381Z,50.70
2017-11-17T03:19:45.448Z,51.00
2017-11-17T03:22:13.521Z,51.10
2017-11-17T03:24:41.580Z,51.40
2017-11-17T03:27:09.651Z,50.50
2017-11-17T03:29:37.726Z,50.70
2017-11-17T03:32:05.791Z,50.30
2017-11-17T03:34:33.865Z,51.10
2017-11-17T03:37:01.939Z,52.10
2017-11-17T03:39:30.008Z,51.60
2017-11-17T03:41:58.081Z,52.60
2017-11-17T03:44:26.139Z,53.20
2017-11-17T03:46:54.217Z,53.10
2017-11-17T03:49:23.044Z,53.10
2017-11-17T03:51:51.116Z,53.10
2017-11-17T03:54:19.176Z,53.80
2017-11-17T03:56:47.253Z,53.70
2017-11-17T03:59:15.316Z,55.60
2017-11-17T04:01:43.388Z,55.40
2017-11-17T04:04:11.457Z,55.70
2017-11-17T04:06:39.520Z,55.60
2017-11-17T04:09:07.592Z,55.90
2017-11-17T04:11:35.662Z,57.20
2017-11-17T04:14:03.738Z,56.80
2017-11-17T04:16:31.822Z,57.20
2017-11-17T04:18:59.896Z,56.60
2017-11-17T04:21:27.966Z,56.80
2017-11-17T04:23:56.048Z,56.80
2017-11-17T04:26:24.126Z,55.40
2017-11-17T04:28:52.204Z,55.90
2017-11-17T04:31:21.039Z,57.30
2017-11-17T04:33:49.107Z,57.30
2017-11-17T04:36:17.264Z,57.60
2017-11-17T04:38:46.152Z,60.00
2017-11-17T04:41:14.989Z,60.90
2017-11-17T04:43:43.089Z,60.80
2017-11-17T04:46:11.153Z,60.30
2017-11-17T04:48:39.221Z,58.70
2017-11-17T04:51:07.329Z,58.50
2017-11-17T04:53:36.186Z,59.00
2017-11-17T04:56:04.260Z,58.90
2017-11-17T04:58:32.327Z,58.90
2017-11-17T05:01:00.413Z,59.90
2017-11-17T05:03:28.488Z,58.80
2017-11-17T05:05:56.570Z,58.50
2017-11-17T05:08:25.409Z,59.80
2017-11-17T05:10:53.490Z,59.80
2017-11-17T05:13:21.561Z,59.50
2017-11-17T05:15:49.664Z,60.20
2017-11-17T05:18:17.731Z,63.40
2017-11-17T05:20:45.804Z,62.30
2017-11-17T05:23:13.868Z,60.00
2017-11-17T05:25:41.956Z,60.00
2017-11-17T05:28:10.028Z,60.60
2017-11-17T05:30:38.083Z,59.90
2017-11-17T05:33:06.182Z,58.50
2017-11-17T05:35:35.008Z,59.00
2017-11-17T05:38:03.080Z,58.90
2017-11-17T05:40:31.916Z,61.30
2017-11-17T05:42:59.988Z,61.20
2017-11-17T05:45:28.052Z,59.50
2017-11-17T05:47:56.274Z,60.10
2017-11-17T05:50:24.340Z,59.30
2017-11-17T05:52:53.175Z,59.70
2017-11-17T05:55:21.240Z,59.70
2017-11-17T05:57:49.315Z,58.60
2017-11-17T06:00:17.393Z,58.50
2017-11-17T06:02:45.475Z,57.90
2017-11-17T06:05:13.536Z,57.70
2017-11-17T06:07:41.605Z,57.50
2017-11-17T06:10:09.678Z,58.40
2017-11-17T06:12:37.748Z,59.10
2017-11-17T06:15:05.826Z,59.10
2017-11-17T06:17:33.905Z,59.30
2017-11-17T06:20:01.968Z,59.20
2017-11-17T06:22:30.253Z,58.60
2017-11-17T06:24:58.330Z,58.40
2017-11-17T06:27:26.403Z,58.90
2017-11-17T06:29:54.474Z,59.10
2017-11-17T06:32:22.548Z,58.50
2017-11-17T06:34:50.667Z,58.60
2017-11-17T06:37:18.739Z,58.30
2017-11-17T06:39:46.852Z,59.00
2017-11-17T06:42:14.921Z,59.90
2017-11-17T06:44:42.998Z,60.00
2017-11-17T06:47:11.075Z,59.50
2017-11-17T06:49:39.153Z,59.10
2017-11-17T06:52:07.236Z,59.70
2017-11-17T06:54:35.323Z,59.90
2017-11-17T06:57:04.165Z,60.60
2017-11-17T06:59:32.244Z,60.70
2017-11-17T07:02:00.328Z,62.00
2017-11-17T07:04:28.421Z,61.40
2017-11-17T07:06:57.278Z,60.80
2017-11-17T07:09:25.357Z,60.70
2017-11-17T07:11:53.432Z,61.50
2017-11-17T07:14:21.525Z,62.10
2017-11-17T07:16:49.609Z,62.30
2017-11-17T07:19:18.453Z,63.90
2017-11-17T07:21:46.528Z,63.80
2017-11-17T07:24:14.607Z,63.00
2017-11-17T07:26:42.682Z,62.80
2017-11-17T07:29:10.747Z,62.50
2017-11-17T07:31:38.820Z,62.50
2017-11-17T07:34:06.925Z,62.00
2017-11-17T07:36:35.774Z,61.60
2017-11-17T07:39:03.843Z,61.50
2017-11-17T07:41:32.681Z,60.60
2017-11-17T07:44:01.537Z,61.20
2017-11-17T07:46:29.612Z,61.50
2017-11-17T07:48:57.685Z,61.20
2017-11-17T07:51:25.780Z,62.80
2017-11-17T07:53:53.854Z,63.30
2017-11-17T07:56:21.924Z,63.30
2017-11-17T07:58:49.997Z,62.40
2017-11-17T08:01:18.061Z,61.20
2017-11-17T08:03:46.141Z,62.00
2017-11-17T08:06:14.203Z,62.50
2017-11-17T08:08:42.277Z,62.60
2017-11-17T08:11:10.362Z,62.40
2017-11-17T08:13:38.433Z,62.30
2017-11-17T08:16:06.502Z,62.50
2017-11-17T08:18:43.279Z,61.80
2017-11-17T08:21:11.331Z,61.80
2017-11-17T08:23:39.409Z,62.30
2017-11-17T08:26:07.488Z,61.10
2017-11-17T08:28:35.565Z,62.40
2017-11-17T08:31:03.626Z,61.10
2017-11-17T08:33:31.691Z,62.50
2017-11-17T08:35:59.765Z,62.50
2017-11-17T08:38:27.832Z,62.30
2017-11-17T08:40:55.912Z,62.50
2017-11-17T08:43:23.988Z,62.60
2017-11-17T08:45:52.071Z,61.90
2017-11-17T08:48:20.159Z,60.90
2017-11-17T08:50:48.993Z,61.40
2017-11-17T08:53:17.092Z,61.20
2017-11-17T08:55:45.164Z,58.50
2017-11-17T08:58:13.249Z,62.30
2017-11-17T09:00:41.328Z,61.80
2017-11-17T09:03:09.392Z,62.50
2017-11-17T09:05:37.460Z,62.50
2017-11-17T09:08:05.524Z,62.10
2017-11-17T09:10:33.617Z,61.80
2017-11-17T09:13:01.688Z,61.60
2017-11-17T09:15:29.774Z,61.70
2017-11-17T09:17:58.613Z,63.00
2017-11-17T09:20:26.698Z,62.90
2017-11-17T09:22:54.760Z,62.50
2017-11-17T09:25:22.854Z,63.10
2017-11-17T09:27:50.932Z,61.00
2017-11-17T09:30:19.000Z,61.80
2017-11-17T09:32:47.069Z,63.40
2017-11-17T09:35:15.137Z,62.60
2017-11-17T09:37:43.216Z,62.60
2017-11-17T09:40:11.281Z,62.60
2017-11-17T09:42:39.353Z,62.50
2017-11-17T09:45:07.425Z,62.60
2017-11-17T09:47:35.500Z,61.80
2017-11-17T09:50:03.573Z,61.30
2017-11-17T09:52:31.649Z,60.70
2017-11-17T09:54:59.714Z,59.80
2017-11-17T09:57:27.821Z,59.80
2017-11-17T09:59:56.680Z,58.10
2017-11-17T10:02:24.729Z,58.10
2017-11-17T10:04:52.805Z,56.90
2017-11-17T10:07:20.881Z,57.10
2017-11-17T10:09:48.947Z,57.50
2017-11-17T10:12:17.020Z,57.60
2017-11-17T10:14:45.095Z,56.40
2017-11-17T10:17:13.163Z,57.60
2017-11-17T10:19:41.265Z,57.70
2017-11-17T10:22:09.333Z,57.50
2017-11-17T10:24:37.408Z,57.20
2017-11-17T10:27:05.483Z,56.90
2017-11-17T10:29:33.553Z,56.80
2017-11-17T10:32:01.628Z,56.70
2017-11-17T10:34:29.691Z,56.50
2017-11-17T10:36:57.768Z,56.50
2017-11-17T10:39:25.833Z,57.70
2017-11-17T10:41:53.921Z,57.90
2017-11-17T10:44:21.989Z,58.80
2017-11-17T10:46:50.065Z,55.50
2017-11-17T10:49:18.137Z,57.40
2017-11-17T10:51:46.192Z,58.50
2017-11-17T10:54:14.273Z,58.10
2017-11-17T10:56:42.343Z,57.10
2017-11-17T10:59:15.999Z,57.10
2017-11-17T11:01:44.056Z,56.10
2017-11-17T11:04:14.988Z,55.70
2017-11-17T11:06:43.834Z,54.70
2017-11-17T11:09:11.914Z,54.60
2017-11-17T11:11:45.558Z,54.80
2017-11-17T11:14:13.649Z,54.50
2017-11-17T11:16:41.719Z,54.90
2017-11-17T11:19:09.791Z,53.60
2017-11-17T11:21:38.642Z,53.10
2017-11-17T11:24:07.488Z,52.00
2017-11-17T11:26:35.557Z,52.00
2017-11-17T11:29:03.628Z,52.50
2017-11-17T11:31:31.705Z,51.50
2017-11-17T11:33:59.816Z,53.20
2017-11-17T11:36:27.885Z,53.30
2017-11-17T11:38:55.948Z,52.50
2017-11-17T11:41:24.021Z,52.20
2017-11-17T11:43:52.104Z,52.50
2017-11-17T11:46:20.189Z,52.60
2017-11-17T11:48:49.025Z,52.20
2017-11-17T11:51:17.105Z,52.20
2017-11-17T11:53:45.186Z,53.20
2017-11-17T11:56:13.257Z,52.30
2017-11-17T11:58:41.329Z,52.10
2017-11-17T12:01:09.422Z,53.20
2017-11-17T12:03:37.492Z,52.30
2017-11-17T12:06:05.560Z,53.00
2017-11-17T12:08:33.641Z,53.80
2017-11-17T12:11:01.732Z,55.00
2017-11-17T12:13:30.570Z,55.00
2017-11-17T12:15:59.034Z,54.90
2017-11-17T12:18:27.107Z,54.60
2017-11-17T12:20:55.956Z,54.30
2017-11-17T12:23:24.821Z,54.40
2017-11-17T12:25:52.902Z,54.30
2017-11-17T12:28:20.981Z,53.70
2017-11-17T12:30:49.049Z,53.60
2017-11-17T12:33:17.133Z,54.40
2017-11-17T12:35:45.965Z,55.10
2017-11-17T12:38:14.040Z,55.10
2017-11-17T12:40:42.117Z,54.30
2017-11-17T12:43:10.185Z,54.00
2017-11-17T12:45:38.259Z,54.50
2017-11-17T12:48:06.337Z,54.60
2017-11-17T12:50:35.181Z,55.10
2017-11-17T12:53:04.020Z,55.10
2017-11-17T12:55:32.088Z,55.10
2017-11-17T12:58:00.930Z,56.50
2017-11-17T13:00:30.497Z,56.70
2017-11-17T13:02:58.560Z,56.60
2017-11-17T13:05:26.633Z,56.40
2017-11-17T13:07:54.697Z,55.60
2017-11-17T13:10:22.792Z,55.20
2017-11-17T13:12:50.864Z,56.00
2017-11-17T13:15:19.166Z,56.00
2017-11-17T13:17:47.240Z,55.70
2017-11-17T13:20:15.337Z,56.70
2017-11-17T13:22:43.415Z,56.60
2017-11-17T13:25:11.487Z,57.40
2017-11-17T13:27:39.573Z,57.10
2017-11-17T13:30:07.687Z,58.70
2017-11-17T13:32:35.931Z,56.40
2017-11-17T13:35:03.997Z,57.10
2017-11-17T13:37:32.080Z,55.20
2017-11-17T13:40:00.916Z,55.30
2017-11-17T13:42:28.985Z,55.20
2017-11-17T13:44:57.046Z,55.30
2017-11-17T13:47:25.141Z,55.60
2017-11-17T13:49:53.977Z,55.30
2017-11-17T13:52:22.041Z,55.30
2017-11-17T13:54:50.877Z,57.00
2017-11-17T13:57:18.969Z,56.90
2017-11-17T13:59:47.812Z,56.70
2017-11-17T14:02:15.894Z,56.60
2017-11-17T14:04:43.965Z,56.20
2017-11-17T14:07:12.029Z,56.60
2017-11-17T14:09:40.114Z,57.30
2017-11-17T14:12:08.182Z,56.80
2017-11-17T14:14:36.267Z,57.30
2017-11-17T14:17:04.337Z,57.60
2017-11-17T14:19:32.427Z,57.30
2017-11-17T14:22:01.268Z,56.60
2017-11-17T14:24:29.340Z,56.60
2017-11-17T14:26:57.425Z,56.90
2017-11-17T14:29:25.495Z,55.30
2017-11-17T14:31:54.348Z,55.60
2017-11-17T14:34:22.420Z,55.10
2017-11-17T14:36:50.510Z,56.80
2017-11-17T14:39:18.580Z,57.10
2017-11-17T14:41:46.656Z,58.80
2017-11-17T14:44:14.735Z,59.00
2017-11-17T14:46:42.813Z,60.10
2017-11-17T14:49:10.892Z,59.50
2017-11-17T14:51:38.970Z,59.80
2017-11-17T14:54:07.041Z,59.80
2017-11-17T14:56:35.143Z,59.50
2017-11-17T14:59:03.990Z,59.40
2017-11-17T15:01:32.065Z,59.30
2017-11-17T15:04:00.151Z,57.40
2017-11-17T15:06:28.225Z,58.10
2017-11-17T15:08:56.312Z,61.00
2017-11-17T15:11:24.381Z,60.10
2017-11-17T15:13:52.463Z,60.40
2017-11-17T15:16:20.540Z,60.30
2017-11-17T15:18:48.616Z,59.90
2017-11-17T15:21:17.463Z,58.80
2017-11-17T15:23:45.569Z,58.70
2017-11-17T15:26:13.638Z,58.60
2017-11-17T15:28:41.728Z,58.80
2017-11-17T15:31:10.580Z,58.70
2017-11-17T15:33:38.649Z,58.60
2017-11-17T15:36:06.738Z,58.50
2017-11-17T15:38:34.836Z,59.40
2017-11-17T15:41:03.684Z,60.80
2017-11-17T15:43:31.765Z,60.10
2017-11-17T15:45:59.845Z,59.50
2017-11-17T15:48:27.920Z,57.50
2017-11-17T15:50:56.000Z,58.10
2017-11-17T15:53:24.853Z,61.40
2017-11-17T15:55:53.689Z,60.50
2017-11-17T15:58:22.540Z,62.00
2017-11-17T16:00:50.616Z,61.90
2017-11-17T16:03:18.691Z,62.50
2017-11-17T16:05:46.761Z,63.60
2017-11-17T16:08:14.839Z,61.90
2017-11-17T16:10:42.915Z,60.90
2017-11-17T16:13:10.992Z,60.70
2017-11-17T16:15:39.052Z,63.20
2017-11-17T16:18:07.131Z,64.00
2017-11-17T16:20:35.210Z,65.60
2017-11-17T16:23:03.281Z,65.10
2017-11-17T16:25:31.361Z,64.80
2017-11-17T16:27:59.518Z,65.90
2017-11-17T16:30:27.588Z,64.70
2017-11-17T16:32:55.651Z,64.70
2017-11-17T16:35:23.736Z,65.10
2017-11-17T16:37:51.802Z,66.10
2017-11-17T16:40:19.890Z,66.80
2017-11-17T16:42:47.961Z,67.00
2017-11-17T16:45:16.065Z,65.00
2017-11-17T16:47:44.894Z,64.00
2017-11-17T16:50:13.751Z,64.40
2017-11-17T16:52:42.590Z,64.90
2017-11-17T16:55:10.664Z,64.80
2017-11-17T16:57:38.737Z,65.30
2017-11-17T17:00:06.801Z,63.40
2017-11-17T17:02:34.881Z,63.50
2017-11-17T17:05:02.944Z,62.80
2017-11-17T17:07:31.023Z,62.70
2017-11-17T17:09:59.092Z,59.90
2017-11-17T17:12:27.194Z,59.70
2017-11-17T17:14:56.149Z,59.40
2017-11-17T17:17:24.284Z,59.20
2017-11-17T17:19:53.130Z,59.50
2017-11-17T17:22:21.200Z,59.50
2017-11-17T17:24:49.281Z,59.40
2017-11-17T17:27:17.355Z,58.40
2017-11-17T17:29:45.455Z,58.80
2017-11-17T17:32:13.538Z,59.10
2017-11-17T17:34:42.396Z,58.80
2017-11-17T17:37:10.460Z,58.70
2017-11-17T17:39:38.545Z,58.90
2017-11-17T17:42:06.617Z,58.20
2017-11-17T17:44:34.696Z,58.20
2017-11-17T17:47:02.811Z,58.80
2017-11-17T17:49:30.889Z,58.80
2017-11-17T17:51:58.977Z,59.70
2017-11-17T17:54:27.048Z,57.80
2017-11-17T17:56:55.122Z,58.80
2017-11-17T17:59:23.183Z,58.30
2017-11-17T18:01:51.256Z,57.70
2017-11-17T18:04:20.102Z,57.90
2017-11-17T18:06:48.970Z,57.50
2017-11-17T18:09:17.051Z,57.50
2017-11-17T18:11:45.181Z,57.30
2017-11-17T18:14:13.261Z,57.40
2017-11-17T18:16:41.329Z,57.80
2017-11-17T18:19:09.409Z,58.80
2017-11-17T18:21:37.484Z,59.00
2017-11-17T18:24:05.557Z,60.40
2017-11-17T18:26:33.642Z,60.30
2017-11-17T18:29:01.737Z,60.70
2017-11-17T18:31:30.600Z,61.00
2017-11-17T18:33:58.705Z,61.00
2017-11-17T18:36:26.765Z,60.00
2017-11-17T18:38:54.843Z,59.50
2017-11-17T18:41:23.676Z,61.10
2017-11-17T18:43:51.788Z,61.00
2017-11-17T18:46:19.865Z,60.50
2017-11-17T18:48:47.938Z,60.50
2017-11-17T18:51:16.020Z,61.50
2017-11-17T18:53:44.919Z,61.00
2017-11-17T18:56:12.948Z,60.80
2017-11-17T18:58:41.028Z,60.70
2017-11-17T19:01:09.118Z,61.60
2017-11-17T19:03:37.172Z,61.80
2017-11-17T19:06:05.253Z,62.30
2017-11-17T19:08:33.384Z,61.80
2017-11-17T19:11:01.402Z,62.10
2017-11-17T19:13:29.505Z,60.70
2017-11-17T19:15:57.544Z,59.50
2017-11-17T19:18:25.616Z,60.00
2017-11-17T19:20:53.703Z,60.70
2017-11-17T19:23:21.761Z,61.30
2017-11-17T19:25:49.856Z,60.60
2017-11-17T19:28:18.693Z,60.40
2017-11-17T19:30:46.764Z,60.30
2017-11-17T19:33:15.594Z,61.00
2017-11-17T19:35:43.660Z,61.00
2017-11-17T19:38:11.733Z,61.90
2017-11-17T19:40:39.797Z,62.80
2017-11-17T19:43:07.924Z,62.40
2017-11-17T19:45:35.985Z,62.00
2017-11-17T19:48:04.124Z,63.60
2017-11-17T19:50:32.324Z,63.10
2017-11-17T19:53:01.170Z,62.90
2017-11-17T19:55:29.237Z,62.80
2017-11-17T19:57:57.312Z,63.20
2017-11-17T20:00:25.385Z,63.60
2017-11-17T20:02:53.457Z,62.20
2017-11-17T20:05:21.529Z,63.80
2017-11-17T20:07:49.601Z,62.60
2017-11-17T20:10:17.676Z,62.80
2017-11-17T20:12:45.794Z,62.20
2017-11-17T20:15:14.632Z,62.00
2017-11-17T20:17:42.704Z,62.00
2017-11-17T20:20:10.785Z,61.90
2017-11-17T20:22:38.853Z,62.00
2017-11-17T20:25:06.920Z,61.70
2017-11-17T20:27:35.009Z,61.00
2017-11-17T20:30:03.076Z,61.10
2017-11-17T20:32:31.193Z,61.80
2017-11-17T20:35:00.029Z,61.80
2017-11-17T20:37:28.148Z,61.80
2017-11-17T20:39:57.066Z,60.70
2017-11-17T20:42:25.125Z,60.60
2017-11-17T20:44:53.259Z,61.20
2017-11-17T20:47:21.382Z,61.90
2017-11-17T20:49:49.489Z,62.60
2017-11-17T20:52:17.603Z,63.20
2017-11-17T20:54:46.485Z,63.70
2017-11-17T20:57:14.564Z,63.50
2017-11-17T20:59:43.456Z,63.70
2017-11-17T21:02:12.305Z,64.10
2017-11-17T21:04:40.375Z,64.00
2017-11-17T21:07:08.453Z,64.50
2017-11-17T21:09:36.521Z,65.90
2017-11-17T21:12:04.600Z,65.60
2017-11-17T21:14:33.088Z,66.20
2017-11-17T21:17:01.166Z,65.40
2017-11-17T21:19:29.287Z,65.90
2017-11-17T21:21:57.352Z,66.30
2017-11-17T21:24:25.425Z,66.60
2017-11-17T21:26:53.487Z,70.60
2017-11-17T21:29:22.327Z,67.00
2017-11-17T21:31:50.397Z,67.00
2017-11-17T21:34:18.478Z,65.50
2017-11-17T21:36:46.540Z,66.20
2017-11-17T21:39:14.664Z,65.50
2017-11-17T21:41:42.688Z,66.50
2017-11-17T21:44:10.761Z,65.20
2017-11-17T21:46:38.833Z,66.10
2017-11-17T21:49:06.904Z,66.70
2017-11-17T21:51:34.977Z,66.90
2017-11-17T21:54:03.071Z,65.70
2017-11-17T21:56:31.138Z,65.70
2017-11-17T21:58:59.213Z,64.60
2017-11-17T22:01:27.281Z,66.20
2017-11-17T22:03:55.359Z,66.20
2017-11-17T22:06:23.436Z,66.00
2017-11-17T22:08:51.522Z,66.40
2017-11-17T22:11:20.351Z,65.80
2017-11-17T22:13:48.436Z,65.70
2017-11-17T22:16:16.500Z,64.60
2017-11-17T22:18:44.581Z,66.60
2017-11-17T22:21:12.644Z,66.90
2017-11-17T22:23:41.485Z,67.40
2017-11-17T22:26:10.339Z,66.50
2017-11-17T22:28:38.419Z,66.50
2017-11-17T22:31:06.485Z,66.80
2017-11-17T22:33:34.560Z,66.90
2017-11-17T22:36:02.630Z,67.70
2017-11-17T22:38:30.701Z,67.80
2017-11-17T22:40:58.788Z,67.60
2017-11-17T22:43:26.860Z,67.30
2017-11-17T22:45:54.945Z,67.80
2017-11-17T22:48:23.017Z,67.90
2017-11-17T22:50:51.093Z,70.10
2017-11-17T22:53:19.933Z,68.80
2017-11-17T22:55:48.768Z,68.70
2017-11-17T22:58:16.839Z,68.70
2017-11-17T23:00:44.927Z,70.20
2017-11-17T23:03:13.755Z,71.70
2017-11-17T23:05:41.832Z,71.70
2017-11-17T23:08:09.905Z,71.80
2017-11-17T23:10:37.985Z,71.50
2017-11-17T23:13:06.050Z,70.50
2017-11-17T23:15:34.326Z,69.20
2017-11-17T23:18:02.427Z,69.50
2017-11-17T23:20:30.545Z,69.60
2017-11-17T23:22:58.637Z,68.90
2017-11-17T23:25:27.378Z,69.40
2017-11-17T23:27:56.521Z,68.10
2017-11-17T23:30:24.598Z,68.00
2017-11-17T23:32:52.709Z,67.40
2017-11-17T23:35:20.776Z,66.90
2017-11-17T23:37:48.860Z,68.10
2017-11-17T23:40:16.926Z,68.70
2017-11-17T23:42:45.099Z,69.70
2017-11-17T23:45:13.184Z,69.30
2017-11-17T23:47:41.308Z,68.60
2017-11-17T23:50:09.400Z,69.70
2017-11-17T23:52:37.475Z,69.40
2017-11-17T23:55:05.549Z,67.90
2017-11-17T23:57:33.632Z,67.90
